Azure — ZCEE2 — position and weather

sailwx.info

Track history (hours):
 
Tides and Currents Weather Stations Pressure Air Temp Water Temp Dewpoint Dewpoint Depression Visibility Wind Speed Wind Dir Waves Ship Positions

Azure

Last reported at 2019-Aug-20 03:55 UTC. Time now 2019-Aug-20 10:05 UTC.
Position N 37°31' W 000°44'.

Length 289 m; draft 8.6 m.

Type: Passenger vessel. MMSI: 310610000.

Date/timePositionNaut miles runAvg speedWind from/ knotsBaromVisibWave heightAir tempDewpointWater temp
2019-Aug-20 03:55N 37°31' W 000°44'1216.4
2019-Aug-20 03:11N 37°36' W 000°30'317.2
2019-Aug-20 03:00N 37°37' W 000°27'8519.7
2019-Aug-19 22:40N 38°13' E 001°12'319.4
2019-Aug-19 22:29N 38°14' E 001°16'1224.0
2019-Aug-19 22:00N 38°18' E 001°30'4918.2 130 / 161013.910.8 26.023.127.0
2019-Aug-19 19:20N 38°39' E 002°26'2219.2
2019-Aug-19 18:10N 38°48' E 002°52'619.4
2019-Aug-19 17:51N 38°50' E 002°59'719.6
2019-Aug-19 17:30N 38°54' E 003°07'1019.6
2019-Aug-19 17:00N 38°58' E 003°18'1319.8
2019-Aug-19 16:22N 39°05' E 003°32'1519.3
2019-Aug-19 15:35N 39°12' E 003°49'517.9
2019-Aug-19 15:20N 39°14' E 003°54'617.9
2019-Aug-19 15:00N 39°18' E 004°01'917.8
2019-Aug-19 14:30N 39°22' E 004°10'917.8
2019-Aug-19 14:00N 39°27' E 004°20'917.8
2019-Aug-19 13:30N 39°31' E 004°30'918.0
2019-Aug-19 13:00N 39°36' E 004°40'1418.3
2019-Aug-19 12:16N 39°43' E 004°55'517.2
2019-Aug-19 12:00N 39°45' E 005°01'1017.9
2019-Aug-19 11:27N 39°50' E 005°11'3718.3
2019-Aug-19 09:26N 40°09' E 005°53'1218.4
2019-Aug-19 08:46N 40°15' E 006°07'1818.2
2019-Aug-19 07:46N 40°24' E 006°27'518.2
2019-Aug-19 07:29N 40°27' E 006°33'918.3
2019-Aug-19 07:00N 40°31' E 006°43'918.3
2019-Aug-19 06:30N 40°36' E 006°54'918.1
2019-Aug-19 06:00N 40°41' E 007°04'1118.4
2019-Aug-19 05:24N 40°46' E 007°17'818.3
2019-Aug-19 04:58N 40°50' E 007°26'1318.3
2019-Aug-19 04:16N 40°57' E 007°40'518.1
2019-Aug-19 04:00N 40°60' E 007°45'6487.4
2019-Aug-19 04:00N 40°54' E 007°42'1429.8 040 / 51014.710.8 24.520.725.0
2019-Aug-19 03:30N 41°04' E 007°55'917.3
2019-Aug-19 03:00N 41°09' E 008°05'918.1
2019-Aug-19 02:30N 41°11' E 008°17'918.5
2019-Aug-19 02:00N 41°13' E 008°29'918.6
2019-Aug-19 01:30N 41°15' E 008°41'918.8
2019-Aug-19 01:00N 41°17' E 008°53'1019.0
2019-Aug-19 00:29N 41°18' E 009°06'2217.7
2019-Aug-18 23:15N 41°26' E 009°34'518.3
2019-Aug-18 23:00N 41°28' E 009°39'1116.9
2019-Aug-18 22:20N 41°32' E 009°53'618.7
2019-Aug-18 22:00N 41°35' E 010°01'41468.2
2019-Aug-18 22:00N 41°36' E 010°06'510.0 170 / 101015.810.8 24.520.725.0
2019-Aug-18 21:30N 41°38' E 010°12'917.9
2019-Aug-18 21:00N 41°41' E 010°23'918.0
2019-Aug-18 20:30N 41°45' E 010°34'918.1
2019-Aug-18 20:00N 41°48' E 010°45'918.1
2019-Aug-18 19:30N 41°52' E 010°57'918.1
2019-Aug-18 19:00N 41°55' E 011°08'918.3
2019-Aug-18 18:30N 41°59' E 011°19'918.2
2019-Aug-18 18:00N 42°03' E 011°30'1016.7
2019-Aug-18 17:23N 42°07' E 011°43'2 6.0
2019-Aug-18 17:00N 42°06' E 011°46'0 0.0
2019-Aug-18 15:13N 42°06' E 011°46'0 0.0
2019-Aug-18 14:40N 42°06' E 011°46'0 0.0
2019-Aug-18 13:46N 42°06' E 011°46'0 0.0
2019-Aug-18 13:23N 42°06' E 011°46'0 0.0
2019-Aug-18 12:22N 42°06' E 011°46'0 0.0
2019-Aug-18 11:07N 42°06' E 011°46'0 0.0
2019-Aug-18 10:58N 42°06' E 011°46'0 0.0
2019-Aug-18 10:28N 42°06' E 011°46'0 0.0
2019-Aug-18 09:58N 42°06' E 011°46'0 0.0
2019-Aug-18 09:04N 42°06' E 011°46'0 0.0
2019-Aug-18 08:41N 42°06' E 011°46'0 0.0
2019-Aug-18 08:28N 42°06' E 011°46'0 0.0
2019-Aug-18 06:31N 42°06' E 011°46'0 0.0
2019-Aug-18 06:13N 42°06' E 011°46'0 0.0
2019-Aug-18 04:59N 42°06' E 011°46'4 3.3
2019-Aug-18 03:40N 42°04' E 011°41'212.9
2019-Aug-18 03:30N 42°03' E 011°38'713.4
2019-Aug-18 02:57N 42°00' E 011°29'614.0
2019-Aug-18 02:30N 42°00' E 011°21'713.7
2019-Aug-18 02:00N 42°00' E 011°11'713.4
2019-Aug-18 01:30N 42°01' E 011°02'713.7
2019-Aug-18 01:00N 42°06' E 010°56'713.1
2019-Aug-18 00:30N 42°11' E 010°51'713.4
2019-Aug-18 00:00N 42°16' E 010°45'713.7
2019-Aug-17 23:29N 42°23' E 010°41'813.9
2019-Aug-17 22:56N 42°30' E 010°38'1213.8
2019-Aug-17 22:05N 42°42' E 010°35'113.6
2019-Aug-17 22:00N 42°43' E 010°34'3610.2
2019-Aug-17 22:00N 42°42' E 010°30'814.7 340 / 111016.510.8 24.020.226.0
2019-Aug-17 21:26N 42°50' E 010°31'613.2
2019-Aug-17 21:01N 42°55' E 010°27'714.0
2019-Aug-17 20:30N 43°01' E 010°23'713.7
2019-Aug-17 20:00N 43°08' E 010°21'713.8
2019-Aug-17 19:30N 43°15' E 010°18'713.8
2019-Aug-17 19:00N 43°21' E 010°15'713.7
2019-Aug-17 18:30N 43°28' E 010°13'6 6.2
2019-Aug-17 17:28N 43°33' E 010°18'0 0.0
2019-Aug-17 16:58N 43°33' E 010°18'0 0.0
2019-Aug-17 16:28N 43°33' E 010°18'0 0.0
2019-Aug-17 15:59N 43°33' E 010°18'0 0.0
2019-Aug-17 15:29N 43°33' E 010°18'0 0.0
2019-Aug-17 14:59N 43°33' E 010°18'0 0.0
2019-Aug-17 14:29N 43°33' E 010°18'0 0.0
2019-Aug-17 13:59N 43°33' E 010°18'0 0.0
2019-Aug-17 13:29N 43°33' E 010°18'0 0.0
2019-Aug-17 12:59N 43°33' E 010°18'0 0.0
2019-Aug-17 12:29N 43°33' E 010°18'0 0.0
2019-Aug-17 11:59N 43°33' E 010°18'0 0.0
2019-Aug-17 11:29N 43°33' E 010°18'0 0.0
2019-Aug-17 10:59N 43°33' E 010°18'0 0.0
2019-Aug-17 10:29N 43°33' E 010°18'0 0.0
2019-Aug-17 09:58N 43°33' E 010°18'0 0.0
2019-Aug-17 09:30N 43°33' E 010°18'0 0.0
2019-Aug-17 08:57N 43°33' E 010°18'0 0.0
2019-Aug-17 08:30N 43°33' E 010°18'0 0.0
2019-Aug-17 07:59N 43°33' E 010°18'0 0.0
2019-Aug-17 07:29N 43°33' E 010°18'0 0.0
2019-Aug-17 06:58N 43°33' E 010°18'0 0.0
2019-Aug-17 06:28N 43°33' E 010°18'0 0.0
2019-Aug-17 05:58N 43°33' E 010°18'0 0.0
2019-Aug-17 05:30N 43°33' E 010°18'0 0.0
2019-Aug-17 05:00N 43°33' E 010°18'0 0.0
2019-Aug-17 04:31N 43°33' E 010°18'0 0.3
2019-Aug-17 04:00N 43°33' E 010°18'3 6.3
2019-Aug-17 03:31N 43°31' E 010°15'713.5
2019-Aug-17 03:01N 43°26' E 010°08'612.0
2019-Aug-17 02:31N 43°21' E 010°03'612.0
2019-Aug-17 02:01N 43°19' E 009°55'612.1
2019-Aug-17 01:30N 43°18' E 009°47'612.4
2019-Aug-17 01:00N 43°17' E 009°38'612.7
2019-Aug-17 00:31N 43°16' E 009°30'612.5
2019-Aug-17 00:01N 43°15' E 009°21'612.3
2019-Aug-16 23:31N 43°14' E 009°13'612.5
2019-Aug-16 23:00N 43°12' E 009°05'612.7
2019-Aug-16 22:31N 43°11' E 008°56'612.8
2019-Aug-16 22:01N 43°08' E 008°48'612.9
2019-Aug-16 21:31N 43°05' E 008°41'713.0
2019-Aug-16 21:00N 43°02' E 008°32'613.0
2019-Aug-16 20:30N 43°02' E 008°24'612.8
2019-Aug-16 20:00N 42°60' E 008°15'612.6
2019-Aug-16 19:30N 42°58' E 008°07'612.4
2019-Aug-16 19:00N 42°55' E 007°59'612.5
2019-Aug-16 18:30N 42°53' E 007°51'612.3
2019-Aug-16 18:00N 42°51' E 007°43'612.4
2019-Aug-16 17:30N 42°48' E 007°36'612.6
2019-Aug-16 17:00N 42°45' E 007°28'4270.0
2019-Aug-16 17:00N 42°42' E 007°30'715.4 1014.010.8 24.521.524.0
2019-Aug-16 16:30N 42°43' E 007°20'812.8
2019-Aug-16 15:53N 42°40' E 007°10'612.9
2019-Aug-16 15:26N 42°37' E 007°03'712.9
2019-Aug-16 14:52N 42°35' E 006°53'4213.0
2019-Aug-16 11:36N 42°20' E 005°59'112.8
2019-Aug-16 11:30N 42°20' E 005°58'1312.6
2019-Aug-16 10:29N 42°15' E 005°42'918.5
2019-Aug-16 10:00N 42°12' E 005°30'8912.4 320 / 301017.110.8 26.015.423.0
2019-Aug-16 02:47N 41°40' E 003°38'412.8
2019-Aug-16 02:29N 41°39' E 003°33'612.9
2019-Aug-16 02:00N 41°36' E 003°25'613.0
2019-Aug-16 01:30N 41°34' E 003°17'612.8
2019-Aug-16 01:00N 41°32' E 003°09'713.0
2019-Aug-16 00:27N 41°29' E 003°00'613.3
2019-Aug-16 00:00N 41°27' E 002°53'1512.9
2019-Aug-15 22:50N 41°22' E 002°34'412.5
2019-Aug-15 22:30N 41°20' E 002°29'612.6
2019-Aug-15 22:01N 41°18' E 002°21'713.1
2019-Aug-15 21:30N 41°16' E 002°13'5 9.1
2019-Aug-15 21:00N 41°20' E 002°10'1 1.8
2019-Aug-15 20:28N 41°21' E 002°10'0 0.0
2019-Aug-15 20:00N 41°21' E 002°10'0 0.0
2019-Aug-15 19:27N 41°21' E 002°10'0 0.0
2019-Aug-15 19:00N 41°21' E 002°10'0 0.0
2019-Aug-15 18:29N 41°21' E 002°10'0 0.0
2019-Aug-15 17:58N 41°21' E 002°10'0 0.0
2019-Aug-15 17:28N 41°21' E 002°10'0 0.0
2019-Aug-15 17:00N 41°21' E 002°10'0 0.0
2019-Aug-15 16:26N 41°21' E 002°10'0 0.0
2019-Aug-15 16:00N 41°21' E 002°10'0 0.0
2019-Aug-15 15:30N 41°21' E 002°10'0 0.0
2019-Aug-15 15:00N 41°21' E 002°10'0 0.0
2019-Aug-15 14:30N 41°21' E 002°10'0 0.0
2019-Aug-15 14:00N 41°21' E 002°10'0 0.0
2019-Aug-15 13:30N 41°21' E 002°10'0 0.0
2019-Aug-15 12:56N 41°21' E 002°10'0 0.0
2019-Aug-15 12:29N 41°21' E 002°10'0 0.0
2019-Aug-15 11:58N 41°21' E 002°10'0 0.0
2019-Aug-15 11:30N 41°21' E 002°10'0 0.0
2019-Aug-15 10:56N 41°21' E 002°10'0 0.0
2019-Aug-15 10:29N 41°21' E 002°10'0 0.0
2019-Aug-15 09:59N 41°21' E 002°10'0 0.0
2019-Aug-15 09:30N 41°21' E 002°10'0 0.0
2019-Aug-15 09:00N 41°21' E 002°10'0 0.0
2019-Aug-15 08:30N 41°21' E 002°10'0 0.0
2019-Aug-15 08:00N 41°21' E 002°10'0 0.0
2019-Aug-15 07:30N 41°21' E 002°10'0 0.0
2019-Aug-15 07:00N 41°21' E 002°10'0 0.0
2019-Aug-15 06:30N 41°21' E 002°10'0 0.0
2019-Aug-15 06:00N 41°21' E 002°10'0 0.3
2019-Aug-15 05:31N 41°21' E 002°10'1 2.1
2019-Aug-15 05:01N 41°20' E 002°10'5 9.5
2019-Aug-15 04:30N 41°15' E 002°11'713.3
2019-Aug-15 04:00N 41°09' E 002°06'714.3
2019-Aug-15 03:30N 41°03' E 002°02'47410.3
2019-Aug-13 05:29N 36°32' W 006°17'13 9.8
2019-Aug-13 04:09N 36°35' W 006°33'1320.1
2019-Aug-13 03:29N 36°34' W 006°49'1219.2
2019-Aug-13 02:51N 36°33' W 007°04'1120.4
2019-Aug-13 02:19N 36°33' W 007°18'3220.3
2019-Aug-13 00:45N 36°33' W 007°58'820.2
2019-Aug-13 00:21N 36°33' W 008°08'1220.8
2019-Aug-12 23:46N 36°32' W 008°23'520.8
2019-Aug-12 23:30N 36°32' W 008°30'1121.0
2019-Aug-12 23:00N 36°32' W 008°43'1120.6
2019-Aug-12 22:27N 36°32' W 008°57'1226.7
2019-Aug-12 22:00N 36°30' W 009°12'516.3 340 / 421018.710.8 20.014.920.0
2019-Aug-12 21:41N 36°34' W 009°16'820.2
2019-Aug-12 21:17N 36°40' W 009°23'620.8
2019-Aug-12 21:00N 36°44' W 009°28'2120.6
2019-Aug-12 19:58N 37°04' W 009°38'1120.9
2019-Aug-12 19:27N 37°14' W 009°42'1720.8
2019-Aug-12 18:39N 37°30' W 009°46'320.9
2019-Aug-12 18:30N 37°33' W 009°47'1520.8
2019-Aug-12 17:47N 37°48' W 009°53'920.8
2019-Aug-12 17:20N 37°57' W 009°55'720.8
2019-Aug-12 16:59N 38°04' W 009°57'1020.5
2019-Aug-12 16:29N 38°14' W 009°59'1020.9
2019-Aug-12 16:00N 38°24' W 010°01'131752.4
2019-Aug-12 16:00N 38°12' W 009°54'2347.7 350 / 301020.310.8 24.013.821.0
2019-Aug-12 15:30N 38°34' W 010°03'1020.7
2019-Aug-12 15:00N 38°44' W 010°06'1020.6
2019-Aug-12 14:30N 38°54' W 010°06'1020.7
2019-Aug-12 14:00N 39°05' W 010°06'5283.6
2019-Aug-12 14:00N 39°06' W 010°00'1020.9 360 / 211022.610.8 23.015.620.0
2019-Aug-12 13:30N 39°15' W 010°05'7521.3
2019-Aug-12 10:00N 40°30' W 010°00'7218.0 030 / 171024.410.8 20.013.020.0
2019-Aug-12 06:00N 41°42' W 010°00'3030.0 010 / 131023.310.8 19.211.620.0
2019-Aug-12 05:00N 42°12' W 010°00'6020.1 350 / 121023.310.8 19.011.820.0
2019-Aug-12 02:00N 43°12' W 010°06'24118.5 330 / 121023.310.8 18.012.720.0
2019-Aug-11 13:00N 46°36' W 007°06'7825.9 250 / 251016.1 5.4 17.513.117.5
2019-Aug-11 10:00N 47°42' W 006°06'2717.9 250 / 181015.410.8 17.013.518.0
2019-Aug-11 08:29N 48°06' W 005°48'919.8
2019-Aug-11 08:00N 48°14' W 005°41'1219.8
2019-Aug-11 07:25N 48°24' W 005°32'819.1
2019-Aug-11 07:00N 48°30' W 005°25'918.3
2019-Aug-11 06:30N 48°38' W 005°16'1020.0
2019-Aug-11 06:00N 48°44' W 005°05'1020.2
2019-Aug-11 05:30N 48°51' W 004°53'1619.7
2019-Aug-11 04:42N 49°02' W 004°36'3218.5
2019-Aug-11 02:59N 49°25' W 004°02'918.2
2019-Aug-11 02:30N 49°28' W 003°50'918.1
2019-Aug-11 02:00N 49°34' W 003°39'918.0
2019-Aug-11 01:30N 49°39' W 003°28'918.3
2019-Aug-11 01:00N 49°44' W 003°16'918.6
2019-Aug-11 00:30N 49°51' W 003°06'1019.2
2019-Aug-11 00:00N 49°57' W 002°55'1019.5
2019-Aug-10 23:30N 50°02' W 002°41'3320.2
2019-Aug-10 21:51N 50°15' W 001°54'3019.3
2019-Aug-10 20:19N 50°29' W 001°13'516.8
2019-Aug-10 20:00N 50°32' W 001°06'816.8
2019-Aug-10 19:30N 50°39' W 000°59'510.1
2019-Aug-10 19:01N 50°43' W 001°02'816.6
2019-Aug-10 18:31N 50°46' W 001°14'5 9.9
2019-Aug-10 18:01N 50°50' W 001°19'510.0
2019-Aug-10 17:31N 50°54' W 001°25'1 2.4
2019-Aug-10 17:01N 50°54' W 001°26'0 0.1
2019-Aug-10 16:28N 50°54' W 001°26'0 0.0
2019-Aug-10 15:58N 50°54' W 001°26'0 0.0
2019-Aug-10 15:28N 50°54' W 001°26'0 0.0
2019-Aug-10 14:58N 50°54' W 001°26'0 0.0
2019-Aug-10 14:28N 50°54' W 001°26'0 0.0
2019-Aug-10 13:52N 50°54' W 001°26'0 0.0
2019-Aug-10 13:30N 50°54' W 001°26'0 0.0
2019-Aug-10 13:00N 50°54' W 001°26'0 0.0
2019-Aug-10 12:30N 50°54' W 001°26'0 0.0
2019-Aug-10 12:00N 50°54' W 001°26'0 0.0
2019-Aug-10 11:27N 50°54' W 001°26'0 0.0
2019-Aug-10 11:00N 50°54' W 001°26'0 0.0
2019-Aug-10 10:26N 50°54' W 001°26'0 0.0
2019-Aug-10 09:53N 50°54' W 001°26'0 0.0
2019-Aug-10 09:29N 50°54' W 001°26'0 0.0
2019-Aug-10 08:59N 50°54' W 001°26'0 0.0
2019-Aug-10 08:29N 50°54' W 001°26'0 0.0
2019-Aug-10 07:59N 50°54' W 001°26'0 0.0
2019-Aug-10 07:29N 50°54' W 001°26'0 0.0
2019-Aug-10 06:59N 50°54' W 001°26'0 0.0
2019-Aug-10 06:31N 50°54' W 001°26'0 0.0
2019-Aug-10 05:34N 50°54' W 001°26'0 0.0
2019-Aug-10 05:28N 50°54' W 001°26'0 0.0
2019-Aug-10 04:55N 50°54' W 001°26'0 0.0
2019-Aug-10 04:30N 50°54' W 001°26'0 0.0
2019-Aug-10 03:58N 50°54' W 001°26'  
Track history (hours):
 
Tides and Currents Weather Stations Pressure Air Temp Water Temp Dewpoint Dewpoint Depression Visibility Wind Speed Wind Dir Waves Ship Positions

Azure

Last reported at 2019-Aug-20 03:55 UTC. Time now 2019-Aug-20 10:05 UTC.
Position N 37°31' W 000°44'.

Length 289 m; draft 8.6 m.

Type: Passenger vessel. MMSI: 310610000.

Date/timePositionNaut miles runAvg speedWind from/ knotsBaromVisibWave heightAir tempDewpointWater temp
2019-Aug-20 03:55N 37°31' W 000°44'1216.4
2019-Aug-20 03:11N 37°36' W 000°30'317.2
2019-Aug-20 03:00N 37°37' W 000°27'8519.7
2019-Aug-19 22:40N 38°13' E 001°12'319.4
2019-Aug-19 22:29N 38°14' E 001°16'1224.0
2019-Aug-19 22:00N 38°18' E 001°30'4918.2 130 / 161013.910.8 26.023.127.0
2019-Aug-19 19:20N 38°39' E 002°26'2219.2
2019-Aug-19 18:10N 38°48' E 002°52'619.4
2019-Aug-19 17:51N 38°50' E 002°59'719.6
2019-Aug-19 17:30N 38°54' E 003°07'1019.6
2019-Aug-19 17:00N 38°58' E 003°18'1319.8
2019-Aug-19 16:22N 39°05' E 003°32'1519.3
2019-Aug-19 15:35N 39°12' E 003°49'517.9
2019-Aug-19 15:20N 39°14' E 003°54'617.9
2019-Aug-19 15:00N 39°18' E 004°01'917.8
2019-Aug-19 14:30N 39°22' E 004°10'917.8
2019-Aug-19 14:00N 39°27' E 004°20'917.8
2019-Aug-19 13:30N 39°31' E 004°30'918.0
2019-Aug-19 13:00N 39°36' E 004°40'1418.3
2019-Aug-19 12:16N 39°43' E 004°55'517.2
2019-Aug-19 12:00N 39°45' E 005°01'1017.9
2019-Aug-19 11:27N 39°50' E 005°11'3718.3
2019-Aug-19 09:26N 40°09' E 005°53'1218.4
2019-Aug-19 08:46N 40°15' E 006°07'1818.2
2019-Aug-19 07:46N 40°24' E 006°27'518.2
2019-Aug-19 07:29N 40°27' E 006°33'918.3
2019-Aug-19 07:00N 40°31' E 006°43'918.3
2019-Aug-19 06:30N 40°36' E 006°54'918.1
2019-Aug-19 06:00N 40°41' E 007°04'1118.4
2019-Aug-19 05:24N 40°46' E 007°17'818.3
2019-Aug-19 04:58N 40°50' E 007°26'1318.3
2019-Aug-19 04:16N 40°57' E 007°40'518.1
2019-Aug-19 04:00N 40°60' E 007°45'6487.4
2019-Aug-19 04:00N 40°54' E 007°42'1429.8 040 / 51014.710.8 24.520.725.0
2019-Aug-19 03:30N 41°04' E 007°55'917.3
2019-Aug-19 03:00N 41°09' E 008°05'918.1
2019-Aug-19 02:30N 41°11' E 008°17'918.5
2019-Aug-19 02:00N 41°13' E 008°29'918.6
2019-Aug-19 01:30N 41°15' E 008°41'918.8
2019-Aug-19 01:00N 41°17' E 008°53'1019.0
2019-Aug-19 00:29N 41°18' E 009°06'2217.7
2019-Aug-18 23:15N 41°26' E 009°34'518.3
2019-Aug-18 23:00N 41°28' E 009°39'1116.9
2019-Aug-18 22:20N 41°32' E 009°53'618.7
2019-Aug-18 22:00N 41°35' E 010°01'41468.2
2019-Aug-18 22:00N 41°36' E 010°06'510.0 170 / 101015.810.8 24.520.725.0
2019-Aug-18 21:30N 41°38' E 010°12'917.9
2019-Aug-18 21:00N 41°41' E 010°23'918.0
2019-Aug-18 20:30N 41°45' E 010°34'918.1
2019-Aug-18 20:00N 41°48' E 010°45'918.1
2019-Aug-18 19:30N 41°52' E 010°57'918.1
2019-Aug-18 19:00N 41°55' E 011°08'918.3
2019-Aug-18 18:30N 41°59' E 011°19'918.2
2019-Aug-18 18:00N 42°03' E 011°30'1016.7
2019-Aug-18 17:23N 42°07' E 011°43'2 6.0
2019-Aug-18 17:00N 42°06' E 011°46'0 0.0
2019-Aug-18 15:13N 42°06' E 011°46'0 0.0
2019-Aug-18 14:40N 42°06' E 011°46'0 0.0
2019-Aug-18 13:46N 42°06' E 011°46'0 0.0
2019-Aug-18 13:23N 42°06' E 011°46'0 0.0
2019-Aug-18 12:22N 42°06' E 011°46'0 0.0
2019-Aug-18 11:07N 42°06' E 011°46'0 0.0
2019-Aug-18 10:58N 42°06' E 011°46'0 0.0
2019-Aug-18 10:28N 42°06' E 011°46'0 0.0
2019-Aug-18 09:58N 42°06' E 011°46'0 0.0
2019-Aug-18 09:04N 42°06' E 011°46'0 0.0
2019-Aug-18 08:41N 42°06' E 011°46'0 0.0
2019-Aug-18 08:28N 42°06' E 011°46'0 0.0
2019-Aug-18 06:31N 42°06' E 011°46'0 0.0
2019-Aug-18 06:13N 42°06' E 011°46'0 0.0
2019-Aug-18 04:59N 42°06' E 011°46'4 3.3
2019-Aug-18 03:40N 42°04' E 011°41'212.9
2019-Aug-18 03:30N 42°03' E 011°38'713.4
2019-Aug-18 02:57N 42°00' E 011°29'614.0
2019-Aug-18 02:30N 42°00' E 011°21'713.7
2019-Aug-18 02:00N 42°00' E 011°11'713.4
2019-Aug-18 01:30N 42°01' E 011°02'713.7
2019-Aug-18 01:00N 42°06' E 010°56'713.1
2019-Aug-18 00:30N 42°11' E 010°51'713.4
2019-Aug-18 00:00N 42°16' E 010°45'713.7
2019-Aug-17 23:29N 42°23' E 010°41'813.9
2019-Aug-17 22:56N 42°30' E 010°38'1213.8
2019-Aug-17 22:05N 42°42' E 010°35'113.6
2019-Aug-17 22:00N 42°43' E 010°34'3610.2
2019-Aug-17 22:00N 42°42' E 010°30'814.7 340 / 111016.510.8 24.020.226.0
2019-Aug-17 21:26N 42°50' E 010°31'613.2
2019-Aug-17 21:01N 42°55' E 010°27'714.0
2019-Aug-17 20:30N 43°01' E 010°23'713.7
2019-Aug-17 20:00N 43°08' E 010°21'713.8
2019-Aug-17 19:30N 43°15' E 010°18'713.8
2019-Aug-17 19:00N 43°21' E 010°15'713.7
2019-Aug-17 18:30N 43°28' E 010°13'6 6.2
2019-Aug-17 17:28N 43°33' E 010°18'0 0.0
2019-Aug-17 16:58N 43°33' E 010°18'0 0.0
2019-Aug-17 16:28N 43°33' E 010°18'0 0.0
2019-Aug-17 15:59N 43°33' E 010°18'0 0.0
2019-Aug-17 15:29N 43°33' E 010°18'0 0.0
2019-Aug-17 14:59N 43°33' E 010°18'0 0.0
2019-Aug-17 14:29N 43°33' E 010°18'0 0.0
2019-Aug-17 13:59N 43°33' E 010°18'0 0.0
2019-Aug-17 13:29N 43°33' E 010°18'0 0.0
2019-Aug-17 12:59N 43°33' E 010°18'0 0.0
2019-Aug-17 12:29N 43°33' E 010°18'0 0.0
2019-Aug-17 11:59N 43°33' E 010°18'0 0.0
2019-Aug-17 11:29N 43°33' E 010°18'0 0.0
2019-Aug-17 10:59N 43°33' E 010°18'0 0.0
2019-Aug-17 10:29N 43°33' E 010°18'0 0.0
2019-Aug-17 09:58N 43°33' E 010°18'0 0.0
2019-Aug-17 09:30N 43°33' E 010°18'0 0.0
2019-Aug-17 08:57N 43°33' E 010°18'0 0.0
2019-Aug-17 08:30N 43°33' E 010°18'0 0.0
2019-Aug-17 07:59N 43°33' E 010°18'0 0.0
2019-Aug-17 07:29N 43°33' E 010°18'0 0.0
2019-Aug-17 06:58N 43°33' E 010°18'0 0.0
2019-Aug-17 06:28N 43°33' E 010°18'0 0.0
2019-Aug-17 05:58N 43°33' E 010°18'0 0.0
2019-Aug-17 05:30N 43°33' E 010°18'0 0.0
2019-Aug-17 05:00N 43°33' E 010°18'0 0.0
2019-Aug-17 04:31N 43°33' E 010°18'0 0.3
2019-Aug-17 04:00N 43°33' E 010°18'3 6.3
2019-Aug-17 03:31N 43°31' E 010°15'713.5
2019-Aug-17 03:01N 43°26' E 010°08'612.0
2019-Aug-17 02:31N 43°21' E 010°03'612.0
2019-Aug-17 02:01N 43°19' E 009°55'612.1
2019-Aug-17 01:30N 43°18' E 009°47'612.4
2019-Aug-17 01:00N 43°17' E 009°38'612.7
2019-Aug-17 00:31N 43°16' E 009°30'612.5
2019-Aug-17 00:01N 43°15' E 009°21'612.3
2019-Aug-16 23:31N 43°14' E 009°13'612.5
2019-Aug-16 23:00N 43°12' E 009°05'612.7
2019-Aug-16 22:31N 43°11' E 008°56'612.8
2019-Aug-16 22:01N 43°08' E 008°48'612.9
2019-Aug-16 21:31N 43°05' E 008°41'713.0
2019-Aug-16 21:00N 43°02' E 008°32'613.0
2019-Aug-16 20:30N 43°02' E 008°24'612.8
2019-Aug-16 20:00N 42°60' E 008°15'612.6
2019-Aug-16 19:30N 42°58' E 008°07'612.4
2019-Aug-16 19:00N 42°55' E 007°59'612.5
2019-Aug-16 18:30N 42°53' E 007°51'612.3
2019-Aug-16 18:00N 42°51' E 007°43'612.4
2019-Aug-16 17:30N 42°48' E 007°36'612.6
2019-Aug-16 17:00N 42°45' E 007°28'4270.0
2019-Aug-16 17:00N 42°42' E 007°30'715.4 1014.010.8 24.521.524.0
2019-Aug-16 16:30N 42°43' E 007°20'812.8
2019-Aug-16 15:53N 42°40' E 007°10'612.9
2019-Aug-16 15:26N 42°37' E 007°03'712.9
2019-Aug-16 14:52N 42°35' E 006°53'4213.0
2019-Aug-16 11:36N 42°20' E 005°59'112.8
2019-Aug-16 11:30N 42°20' E 005°58'1312.6
2019-Aug-16 10:29N 42°15' E 005°42'918.5
2019-Aug-16 10:00N 42°12' E 005°30'8912.4 320 / 301017.110.8 26.015.423.0
2019-Aug-16 02:47N 41°40' E 003°38'412.8
2019-Aug-16 02:29N 41°39' E 003°33'612.9
2019-Aug-16 02:00N 41°36' E 003°25'613.0
2019-Aug-16 01:30N 41°34' E 003°17'612.8
2019-Aug-16 01:00N 41°32' E 003°09'713.0
2019-Aug-16 00:27N 41°29' E 003°00'613.3
2019-Aug-16 00:00N 41°27' E 002°53'1512.9
2019-Aug-15 22:50N 41°22' E 002°34'412.5
2019-Aug-15 22:30N 41°20' E 002°29'612.6
2019-Aug-15 22:01N 41°18' E 002°21'713.1
2019-Aug-15 21:30N 41°16' E 002°13'5 9.1
2019-Aug-15 21:00N 41°20' E 002°10'1 1.8
2019-Aug-15 20:28N 41°21' E 002°10'0 0.0
2019-Aug-15 20:00N 41°21' E 002°10'0 0.0
2019-Aug-15 19:27N 41°21' E 002°10'0 0.0
2019-Aug-15 19:00N 41°21' E 002°10'0 0.0
2019-Aug-15 18:29N 41°21' E 002°10'0 0.0
2019-Aug-15 17:58N 41°21' E 002°10'0 0.0
2019-Aug-15 17:28N 41°21' E 002°10'0 0.0
2019-Aug-15 17:00N 41°21' E 002°10'0 0.0
2019-Aug-15 16:26N 41°21' E 002°10'0 0.0
2019-Aug-15 16:00N 41°21' E 002°10'0 0.0
2019-Aug-15 15:30N 41°21' E 002°10'0 0.0
2019-Aug-15 15:00N 41°21' E 002°10'0 0.0
2019-Aug-15 14:30N 41°21' E 002°10'0 0.0
2019-Aug-15 14:00N 41°21' E 002°10'0 0.0
2019-Aug-15 13:30N 41°21' E 002°10'0 0.0
2019-Aug-15 12:56N 41°21' E 002°10'0 0.0
2019-Aug-15 12:29N 41°21' E 002°10'0 0.0
2019-Aug-15 11:58N 41°21' E 002°10'0 0.0
2019-Aug-15 11:30N 41°21' E 002°10'0 0.0
2019-Aug-15 10:56N 41°21' E 002°10'0 0.0
2019-Aug-15 10:29N 41°21' E 002°10'0 0.0
2019-Aug-15 09:59N 41°21' E 002°10'0 0.0
2019-Aug-15 09:30N 41°21' E 002°10'0 0.0
2019-Aug-15 09:00N 41°21' E 002°10'0 0.0
2019-Aug-15 08:30N 41°21' E 002°10'0 0.0
2019-Aug-15 08:00N 41°21' E 002°10'0 0.0
2019-Aug-15 07:30N 41°21' E 002°10'0 0.0
2019-Aug-15 07:00N 41°21' E 002°10'0 0.0
2019-Aug-15 06:30N 41°21' E 002°10'0 0.0
2019-Aug-15 06:00N 41°21' E 002°10'0 0.3
2019-Aug-15 05:31N 41°21' E 002°10'1 2.1
2019-Aug-15 05:01N 41°20' E 002°10'5 9.5
2019-Aug-15 04:30N 41°15' E 002°11'713.3
2019-Aug-15 04:00N 41°09' E 002°06'714.3
2019-Aug-15 03:30N 41°03' E 002°02'47410.3
2019-Aug-13 05:29N 36°32' W 006°17'13 9.8
2019-Aug-13 04:09N 36°35' W 006°33'1320.1
2019-Aug-13 03:29N 36°34' W 006°49'1219.2
2019-Aug-13 02:51N 36°33' W 007°04'1120.4
2019-Aug-13 02:19N 36°33' W 007°18'3220.3
2019-Aug-13 00:45N 36°33' W 007°58'820.2
2019-Aug-13 00:21N 36°33' W 008°08'1220.8
2019-Aug-12 23:46N 36°32' W 008°23'520.8
2019-Aug-12 23:30N 36°32' W 008°30'1121.0
2019-Aug-12 23:00N 36°32' W 008°43'1120.6
2019-Aug-12 22:27N 36°32' W 008°57'1226.7
2019-Aug-12 22:00N 36°30' W 009°12'516.3 340 / 421018.710.8 20.014.920.0
2019-Aug-12 21:41N 36°34' W 009°16'820.2
2019-Aug-12 21:17N 36°40' W 009°23'620.8
2019-Aug-12 21:00N 36°44' W 009°28'2120.6
2019-Aug-12 19:58N 37°04' W 009°38'1120.9
2019-Aug-12 19:27N 37°14' W 009°42'1720.8
2019-Aug-12 18:39N 37°30' W 009°46'320.9
2019-Aug-12 18:30N 37°33' W 009°47'1520.8
2019-Aug-12 17:47N 37°48' W 009°53'920.8
2019-Aug-12 17:20N 37°57' W 009°55'720.8
2019-Aug-12 16:59N 38°04' W 009°57'1020.5
2019-Aug-12 16:29N 38°14' W 009°59'1020.9
2019-Aug-12 16:00N 38°24' W 010°01'131752.4
2019-Aug-12 16:00N 38°12' W 009°54'2347.7 350 / 301020.310.8 24.013.821.0
2019-Aug-12 15:30N 38°34' W 010°03'1020.7
2019-Aug-12 15:00N 38°44' W 010°06'1020.6
2019-Aug-12 14:30N 38°54' W 010°06'1020.7
2019-Aug-12 14:00N 39°05' W 010°06'5283.6
2019-Aug-12 14:00N 39°06' W 010°00'1020.9 360 / 211022.610.8 23.015.620.0
2019-Aug-12 13:30N 39°15' W 010°05'7521.3
2019-Aug-12 10:00N 40°30' W 010°00'7218.0 030 / 171024.410.8 20.013.020.0
2019-Aug-12 06:00N 41°42' W 010°00'3030.0 010 / 131023.310.8 19.211.620.0
2019-Aug-12 05:00N 42°12' W 010°00'6020.1 350 / 121023.310.8 19.011.820.0
2019-Aug-12 02:00N 43°12' W 010°06'24118.5 330 / 121023.310.8 18.012.720.0
2019-Aug-11 13:00N 46°36' W 007°06'7825.9 250 / 251016.1 5.4 17.513.117.5
2019-Aug-11 10:00N 47°42' W 006°06'2717.9 250 / 181015.410.8 17.013.518.0
2019-Aug-11 08:29N 48°06' W 005°48'919.8
2019-Aug-11 08:00N 48°14' W 005°41'1219.8
2019-Aug-11 07:25N 48°24' W 005°32'819.1
2019-Aug-11 07:00N 48°30' W 005°25'918.3
2019-Aug-11 06:30N 48°38' W 005°16'1020.0
2019-Aug-11 06:00N 48°44' W 005°05'1020.2
2019-Aug-11 05:30N 48°51' W 004°53'1619.7
2019-Aug-11 04:42N 49°02' W 004°36'3218.5
2019-Aug-11 02:59N 49°25' W 004°02'918.2
2019-Aug-11 02:30N 49°28' W 003°50'918.1
2019-Aug-11 02:00N 49°34' W 003°39'918.0
2019-Aug-11 01:30N 49°39' W 003°28'918.3
2019-Aug-11 01:00N 49°44' W 003°16'918.6
2019-Aug-11 00:30N 49°51' W 003°06'1019.2
2019-Aug-11 00:00N 49°57' W 002°55'1019.5
2019-Aug-10 23:30N 50°02' W 002°41'3320.2
2019-Aug-10 21:51N 50°15' W 001°54'3019.3
2019-Aug-10 20:19N 50°29' W 001°13'516.8
2019-Aug-10 20:00N 50°32' W 001°06'816.8
2019-Aug-10 19:30N 50°39' W 000°59'510.1
2019-Aug-10 19:01N 50°43' W 001°02'816.6
2019-Aug-10 18:31N 50°46' W 001°14'5 9.9
2019-Aug-10 18:01N 50°50' W 001°19'510.0
2019-Aug-10 17:31N 50°54' W 001°25'1 2.4
2019-Aug-10 17:01N 50°54' W 001°26'0 0.1
2019-Aug-10 16:28N 50°54' W 001°26'0 0.0
2019-Aug-10 15:58N 50°54' W 001°26'0 0.0
2019-Aug-10 15:28N 50°54' W 001°26'0 0.0
2019-Aug-10 14:58N 50°54' W 001°26'0 0.0
2019-Aug-10 14:28N 50°54' W 001°26'0 0.0
2019-Aug-10 13:52N 50°54' W 001°26'0 0.0
2019-Aug-10 13:30N 50°54' W 001°26'0 0.0
2019-Aug-10 13:00N 50°54' W 001°26'0 0.0
2019-Aug-10 12:30N 50°54' W 001°26'0 0.0
2019-Aug-10 12:00N 50°54' W 001°26'0 0.0
2019-Aug-10 11:27N 50°54' W 001°26'0 0.0
2019-Aug-10 11:00N 50°54' W 001°26'0 0.0
2019-Aug-10 10:26N 50°54' W 001°26'0 0.0
2019-Aug-10 09:53N 50°54' W 001°26'0 0.0
2019-Aug-10 09:29N 50°54' W 001°26'0 0.0
2019-Aug-10 08:59N 50°54' W 001°26'0 0.0
2019-Aug-10 08:29N 50°54' W 001°26'0 0.0
2019-Aug-10 07:59N 50°54' W 001°26'0 0.0
2019-Aug-10 07:29N 50°54' W 001°26'0 0.0
2019-Aug-10 06:59N 50°54' W 001°26'0 0.0
2019-Aug-10 06:31N 50°54' W 001°26'0 0.0
2019-Aug-10 05:34N 50°54' W 001°26'0 0.0
2019-Aug-10 05:28N 50°54' W 001°26'0 0.0
2019-Aug-10 04:55N 50°54' W 001°26'0 0.0
2019-Aug-10 04:30N 50°54' W 001°26'0 0.0
2019-Aug-10 03:58N 50°54' W 001°26'  

Dump ship's entire track history